Ana Sayfa
METAR-TAF:

METAR-TAF

Havaalanları :

Çernivtsi Uluslararası Havalimanı

Çernivtsi, Ukrayna

Enlem: 48-15-36N, Boylam: 025-58-54E, yükseklik: 252 m

Güncel hava durumu gözlemi

Rapor saat 20:30 UTC de 6 saat ve 21 dakika önce yapıldı.
Rüzgar doğu/güneydoğudan 2 kt
Sıcaklık 7°C
Nem 100%
Basınç 1021 hPa
Görüş mesafesi: 0050 m
sis

METAR: UKLN 182030Z 11001MPS 0450 0050NW R15/0275D FG NSC 07/07 Q1021 R15/09//70 NOSIG

Saat: 04:51 (02:51 UTC)

Tahmin

Rapor saat 17:12 UTC de 9 saat ve 39 dakika önce yapıldı.
Ayın 18'si saat 18 UTC'den ayın 19'si saat 03 UTC'ye kadar geçerli Tahmin
Rüzgar doğudan 10 kt
Görüş mesafesi: 3000 m
3000 ft yükseklikte parçalı çok bulutlu
Pus
Geçici
ayın 18'si saat 18 UTC'den ayın 19'si saat 03 UTC'ye kadar
Rüzgar değişken yönden 2 kt
Görüş mesafesi: 0500 m
200 ft yükseklikte
sis

TAF: UKLN 181712Z 1818/1903 10005MPS 3000 BR BKN030 TEMPO 1818/1903 VRB01MPS 0500 FG VV002

4.000'den fazla havaalanı için hava durumu gözlemleri ve tahminleri (METAR ve TAF raporları).

Kullanılabilir istasyonlar harita üzerinde sarı ve kırmızı noktalarla gösterilir.

İstasyonun adını görmek için fareyi noktanın üzerinde gezdirin.

Sonrasında hava gözlem ve tahminlerini görmek için tıklayın.

Haritayı değiştirmek için: yaklaştırmak için siyah artı işaretli yeşil düğmeye ve uzaklaştırmak için de eksi işaretli düğmeye hızla tıklayın; bitişik haritalar için yeşil okları kullanın.


METAR-TAF: